Grizzly Air Cargo 5374


PACD
Cold Bay Airport
Cold Bay, Alaska, US
PASD
Sand Point Airport
Sand Point, Alaska, US

Activity Log

Date Flight Route Aircraft Duration
No Flights Yet

Route Details

Aircraft Information
Primary: Saab 340AF
Backup: Not Available
Route Data
Distance: 91nm
Sched. Duration: 0h 40m
Avg. Duration: 0h 00m (-40m)
Times Flown: 0
Recm'd Route: ELF G12 HBT
Planned Altitude: 13,000ft
Origin Wx: PACD 290353Z AUTO 36012KT 10SM OVC050 11/03 A3027 RMK AO2 SLP252 T01060028 TSNO
Dest. Wx: PASD 290356Z AUTO 35014KT 10SM CLR 11/02 A3024 RMK AO2 SLP243 T01110017 PNO $
Notes:

Financial History
Total Freight: 0lbs
Average Load: 0lbs/flt
Fuel Used: 0lbs
Avg. Fuel Used: 0lbs/flt
Fuel Expense: $0
Avg. Fuel Expense: $0
Avg. Fuel Cost: $0/lbs
Total Gross Income: $0
Pilot Pay: $0
Total Expenses: $0
Total Revenue: $0
Average Revenue: $0